sensor_id;sensor_type;location;lat;lon;timestamp;pressure;altitude;pressure_sealevel;temperature;humidity
5780;BME280;2916;49.798;10.022;2023-04-19T00:00:48;146193.88;;;7.68;94.62
5780;BME280;2916;49.798;10.022;2023-04-19T00:03:16;146176.53;;;7.61;94.46
5780;BME280;2916;49.798;10.022;2023-04-19T00:05:43;146229.81;;;7.83;94.72
5780;BME280;2916;49.798;10.022;2023-04-19T00:08:10;146190.19;;;7.67;94.65
5780;BME280;2916;49.798;10.022;2023-04-19T00:10:37;146228.56;;;7.82;94.72
5780;BME280;2916;49.798;10.022;2023-04-19T00:13:05;146188.91;;;7.66;94.65
5780;BME280;2916;49.798;10.022;2023-04-19T00:15:33;146253.31;;;7.93;94.60
5780;BME280;2916;49.798;10.022;2023-04-19T00:18:00;146221.13;;;7.79;94.41
5780;BME280;2916;49.798;10.022;2023-04-19T00:20:28;146211.22;;;7.75;95.35
5780;BME280;2916;49.798;10.022;2023-04-19T00:22:55;146136.91;;;7.45;95.30
5780;BME280;2916;49.798;10.022;2023-04-19T00:25:23;146224.81;;;7.81;95.29
5780;BME280;2916;49.798;10.022;2023-04-19T00:27:51;146216.16;;;7.77;95.71
5780;BME280;2916;49.798;10.022;2023-04-19T00:30:18;146091.09;;;7.26;95.19
5780;BME280;2916;49.798;10.022;2023-04-19T00:32:47;146247.16;;;7.90;95.19
5780;BME280;2916;49.798;10.022;2023-04-19T00:35:14;146237.25;;;7.86;94.67
5780;BME280;2916;49.798;10.022;2023-04-19T00:37:41;146270.66;;;8.00;94.96
5780;BME280;2916;49.798;10.022;2023-04-19T00:40:09;146231.03;;;7.83;95.10
5780;BME280;2916;49.798;10.022;2023-04-19T00:42:36;146257.06;;;7.94;94.80
5780;BME280;2916;49.798;10.022;2023-04-19T00:45:05;146273.13;;;8.01;94.25
5780;BME280;2916;49.798;10.022;2023-04-19T00:47:32;146244.63;;;7.89;93.92
5780;BME280;2916;49.798;10.022;2023-04-19T00:50:02;146201.31;;;7.71;94.09
5780;BME280;2916;49.798;10.022;2023-04-19T00:52:29;146311.53;;;8.17;94.22
5780;BME280;2916;49.798;10.022;2023-04-19T00:54:58;146316.50;;;8.19;94.32
5780;BME280;2916;49.798;10.022;2023-04-19T00:57:26;146265.72;;;7.98;93.61
5780;BME280;2916;49.798;10.022;2023-04-19T00:59:55;146271.91;;;8.00;94.17
5780;BME280;2916;49.798;10.022;2023-04-19T01:02:23;146253.31;;;7.93;94.05
5780;BME280;2916;49.798;10.022;2023-04-19T01:04:50;146320.22;;;8.20;94.12
5780;BME280;2916;49.798;10.022;2023-04-19T01:07:19;146325.19;;;8.22;93.98
5780;BME280;2916;49.798;10.022;2023-04-19T01:09:47;146326.41;;;8.23;94.30
5780;BME280;2916;49.798;10.022;2023-04-19T01:12:14;146332.63;;;8.25;93.90
5780;BME280;2916;49.798;10.022;2023-04-19T01:14:41;146255.78;;;7.94;93.89
5780;BME280;2916;49.798;10.022;2023-04-19T01:17:09;146326.41;;;8.23;93.33
5780;BME280;2916;49.798;10.022;2023-04-19T01:19:38;146206.25;;;7.73;93.61
5780;BME280;2916;49.798;10.022;2023-04-19T01:22:05;146229.81;;;7.83;93.29
5780;BME280;2916;49.798;10.022;2023-04-19T01:24:33;146328.88;;;8.24;94.04
5780;BME280;2916;49.798;10.022;2023-04-19T01:27:00;146154.25;;;7.52;93.86
5780;BME280;2916;49.798;10.022;2023-04-19T01:29:28;146205.00;;;7.73;94.29
5780;BME280;2916;49.798;10.022;2023-04-19T01:31:55;146275.63;;;8.02;95.40
5780;BME280;2916;49.798;10.022;2023-04-19T01:34:22;146281.81;;;8.04;95.95
5780;BME280;2916;49.798;10.022;2023-04-19T01:36:49;146108.44;;;7.33;94.97
5780;BME280;2916;49.798;10.022;2023-04-19T01:39:17;146270.66;;;8.00;94.68
5780;BME280;2916;49.798;10.022;2023-04-19T01:41:45;146310.28;;;8.16;94.41
5780;BME280;2916;49.798;10.022;2023-04-19T01:44:12;146143.13;;;7.47;94.28
5780;BME280;2916;49.798;10.022;2023-04-19T01:46:39;146299.16;;;8.11;94.58
5780;BME280;2916;49.798;10.022;2023-04-19T01:49:07;146281.81;;;8.04;94.90
5780;BME280;2916;49.798;10.022;2023-04-19T01:51:36;146250.84;;;7.92;94.55
5780;BME280;2916;49.798;10.022;2023-04-19T01:54:03;146292.94;;;8.09;93.94
5780;BME280;2916;49.798;10.022;2023-04-19T01:56:30;146260.75;;;7.96;93.86
5780;BME280;2916;49.798;10.022;2023-04-19T01:58:59;146250.84;;;7.92;94.09
5780;BME280;2916;49.798;10.022;2023-04-19T02:01:26;146177.75;;;7.61;93.25
5780;BME280;2916;49.798;10.022;2023-04-19T02:03:53;146233.50;;;7.84;92.93
5780;BME280;2916;49.798;10.022;2023-04-19T02:06:20;146223.59;;;7.80;92.99
5780;BME280;2916;49.798;10.022;2023-04-19T02:08:47;146105.97;;;7.32;93.01
5780;BME280;2916;49.798;10.022;2023-04-19T02:11:14;146177.75;;;7.61;92.98
5780;BME280;2916;49.798;10.022;2023-04-19T02:13:42;146122.03;;;7.38;93.11
5780;BME280;2916;49.798;10.022;2023-04-19T02:16:10;146144.34;;;7.48;93.88
5780;BME280;2916;49.798;10.022;2023-04-19T02:18:37;145968.56;;;6.75;93.49
5780;BME280;2916;49.798;10.022;2023-04-19T02:21:06;146062.63;;;7.14;93.62
5780;BME280;2916;49.798;10.022;2023-04-19T02:23:34;146057.69;;;7.12;93.62
5780;BME280;2916;49.798;10.022;2023-04-19T02:26:01;146102.22;;;7.30;94.12
5780;BME280;2916;49.798;10.022;2023-04-19T02:28:28;146041.59;;;7.05;94.38
5780;BME280;2916;49.798;10.022;2023-04-19T02:30:56;146040.38;;;7.05;94.77
5780;BME280;2916;49.798;10.022;2023-04-19T02:33:25;146050.25;;;7.09;95.41
5780;BME280;2916;49.798;10.022;2023-04-19T02:35:53;146149.28;;;7.50;95.70
5780;BME280;2916;49.798;10.022;2023-04-19T02:38:20;146131.94;;;7.43;96.63
5780;BME280;2916;49.798;10.022;2023-04-19T02:40:47;146114.66;;;7.35;97.43
5780;BME280;2916;49.798;10.022;2023-04-19T02:43:15;146164.16;;;7.56;97.42
5780;BME280;2916;49.798;10.022;2023-04-19T02:45:42;146094.84;;;7.27;98.53
5780;BME280;2916;49.798;10.022;2023-04-19T02:48:09;146193.88;;;7.68;98.42
5780;BME280;2916;49.798;10.022;2023-04-19T02:50:37;146188.91;;;7.66;98.89
5780;BME280;2916;49.798;10.022;2023-04-19T02:53:05;146208.75;;;7.74;99.15
5780;BME280;2916;49.798;10.022;2023-04-19T02:55:32;146210.00;;;7.75;99.11
5780;BME280;2916;49.798;10.022;2023-04-19T02:57:59;146217.38;;;7.78;99.29
5780;BME280;2916;49.798;10.022;2023-04-19T03:00:26;146117.09;;;7.36;100.00
5780;BME280;2916;49.798;10.022;2023-04-19T03:02:54;146226.06;;;7.81;100.00
5780;BME280;2916;49.798;10.022;2023-04-19T03:05:22;146233.50;;;7.84;99.57
5780;BME280;2916;49.798;10.022;2023-04-19T03:07:50;146231.03;;;7.83;99.81
5780;BME280;2916;49.798;10.022;2023-04-19T03:10:17;146196.34;;;7.69;100.00
5780;BME280;2916;49.798;10.022;2023-04-19T03:12:44;146226.06;;;7.81;100.00
5780;BME280;2916;49.798;10.022;2023-04-19T03:15:12;146253.31;;;7.93;99.96
5780;BME280;2916;49.798;10.022;2023-04-19T03:17:39;146260.75;;;7.96;99.97
5780;BME280;2916;49.798;10.022;2023-04-19T03:20:08;146198.81;;;7.70;100.00
5780;BME280;2916;49.798;10.022;2023-04-19T03:22:36;146117.09;;;7.36;100.00
5780;BME280;2916;49.798;10.022;2023-04-19T03:25:06;146253.31;;;7.93;100.00
5780;BME280;2916;49.798;10.022;2023-04-19T03:27:34;146269.44;;;7.99;99.94
5780;BME280;2916;49.798;10.022;2023-04-19T03:30:03;146233.50;;;7.84;100.00
5780;BME280;2916;49.798;10.022;2023-04-19T03:32:30;146268.19;;;7.99;100.00
5780;BME280;2916;49.798;10.022;2023-04-19T03:34:57;146262.00;;;7.96;100.00
5780;BME280;2916;49.798;10.022;2023-04-19T03:37:25;146210.00;;;7.75;100.00
5780;BME280;2916;49.798;10.022;2023-04-19T03:39:52;146144.34;;;7.48;100.00
5780;BME280;2916;49.798;10.022;2023-04-19T03:42:20;146212.47;;;7.76;100.00
5780;BME280;2916;49.798;10.022;2023-04-19T03:44:47;146221.13;;;7.79;100.00
5780;BME280;2916;49.798;10.022;2023-04-19T03:47:14;146255.78;;;7.94;100.00
5780;BME280;2916;49.798;10.022;2023-04-19T03:49:41;146231.03;;;7.83;100.00
5780;BME280;2916;49.798;10.022;2023-04-19T03:52:09;146161.69;;;7.55;100.00
5780;BME280;2916;49.798;10.022;2023-04-19T03:54:36;146273.13;;;8.01;100.00
5780;BME280;2916;49.798;10.022;2023-04-19T03:57:03;146268.19;;;7.99;100.00
5780;BME280;2916;49.798;10.022;2023-04-19T03:59:32;146278.09;;;8.03;100.00
5780;BME280;2916;49.798;10.022;2023-04-19T04:02:00;146119.56;;;7.37;100.00
5780;BME280;2916;49.798;10.022;2023-04-19T04:04:27;146003.22;;;6.89;100.00
5780;BME280;2916;49.798;10.022;2023-04-19T04:06:56;146183.97;;;7.64;100.00
5780;BME280;2916;49.798;10.022;2023-04-19T04:09:25;146312.75;;;8.17;100.00
5780;BME280;2916;49.798;10.022;2023-04-19T04:11:52;146253.31;;;7.93;100.00
5780;BME280;2916;49.798;10.022;2023-04-19T04:14:19;146295.44;;;8.10;100.00
5780;BME280;2916;49.798;10.022;2023-04-19T04:16:47;146315.28;;;8.18;100.00
5780;BME280;2916;49.798;10.022;2023-04-19T04:19:14;146317.75;;;8.19;100.00
5780;BME280;2916;49.798;10.022;2023-04-19T04:21:41;146325.19;;;8.22;100.00
5780;BME280;2916;49.798;10.022;2023-04-19T04:24:09;146323.94;;;8.22;100.00
5780;BME280;2916;49.798;10.022;2023-04-19T04:26:36;146288.00;;;8.07;100.00
5780;BME280;2916;49.798;10.022;2023-04-19T04:29:04;146340.03;;;8.28;100.00
5780;BME280;2916;49.798;10.022;2023-04-19T04:31:31;146325.19;;;8.22;100.00
5780;BME280;2916;49.798;10.022;2023-04-19T04:34:02;146311.53;;;8.17;100.00
5780;BME280;2916;49.798;10.022;2023-04-19T04:36:29;146328.88;;;8.24;100.00
5780;BME280;2916;49.798;10.022;2023-04-19T04:38:57;146197.56;;;7.70;100.00
5780;BME280;2916;49.798;10.022;2023-04-19T04:41:26;146248.38;;;7.91;100.00
5780;BME280;2916;49.798;10.022;2023-04-19T04:43:56;146340.03;;;8.28;100.00
5780;BME280;2916;49.798;10.022;2023-04-19T04:46:25;146226.06;;;7.81;100.00
5780;BME280;2916;49.798;10.022;2023-04-19T04:48:52;146340.03;;;8.28;100.00
5780;BME280;2916;49.798;10.022;2023-04-19T04:51:21;146320.22;;;8.20;100.00
5780;BME280;2916;49.798;10.022;2023-04-19T04:53:48;146196.34;;;7.69;100.00
5780;BME280;2916;49.798;10.022;2023-04-19T04:56:15;146346.22;;;8.31;100.00
5780;BME280;2916;49.798;10.022;2023-04-19T04:58:42;146297.91;;;8.11;100.00
5780;BME280;2916;49.798;10.022;2023-04-19T05:01:09;146332.63;;;8.25;100.00
5780;BME280;2916;49.798;10.022;2023-04-19T05:03:36;146201.31;;;7.71;100.00
5780;BME280;2916;49.798;10.022;2023-04-19T05:06:04;145959.88;;;6.72;100.00
5780;BME280;2916;49.798;10.022;2023-04-19T05:08:32;146335.09;;;8.26;100.00
5780;BME280;2916;49.798;10.022;2023-04-19T05:10:59;146146.81;;;7.49;100.00
5780;BME280;2916;49.798;10.022;2023-04-19T05:13:26;146274.34;;;8.01;100.00
5780;BME280;2916;49.798;10.022;2023-04-19T05:15:54;146332.63;;;8.25;100.00
5780;BME280;2916;49.798;10.022;2023-04-19T05:18:21;146340.03;;;8.28;100.00
5780;BME280;2916;49.798;10.022;2023-04-19T05:20:48;146327.66;;;8.23;100.00
5780;BME280;2916;49.798;10.022;2023-04-19T05:23:15;146164.16;;;7.56;100.00
5780;BME280;2916;49.798;10.022;2023-04-19T05:25:44;146359.84;;;8.36;100.00
5780;BME280;2916;49.798;10.022;2023-04-19T05:28:12;146154.25;;;7.52;100.00
5780;BME280;2916;49.798;10.022;2023-04-19T05:30:39;146382.22;;;8.46;100.00
5780;BME280;2916;49.798;10.022;2023-04-19T05:33:06;146382.22;;;8.46;100.00
5780;BME280;2916;49.798;10.022;2023-04-19T05:35:33;146387.16;;;8.48;100.00
5780;BME280;2916;49.798;10.022;2023-04-19T05:38:00;146291.72;;;8.08;100.00
5780;BME280;2916;49.798;10.022;2023-04-19T05:40:28;146029.22;;;7.00;100.00
5780;BME280;2916;49.798;10.022;2023-04-19T05:42:56;146413.19;;;8.58;100.00
5780;BME280;2916;49.798;10.022;2023-04-19T05:45:24;146354.91;;;8.34;100.00
5780;BME280;2916;49.798;10.022;2023-04-19T05:47:52;146413.19;;;8.58;100.00
5780;BME280;2916;49.798;10.022;2023-04-19T05:50:19;146411.97;;;8.58;100.00
5780;BME280;2916;49.798;10.022;2023-04-19T05:52:47;146393.38;;;8.50;100.00
5780;BME280;2916;49.798;10.022;2023-04-19T05:55:14;146429.31;;;8.65;100.00
5780;BME280;2916;49.798;10.022;2023-04-19T05:57:41;146349.94;;;8.32;100.00
5780;BME280;2916;49.798;10.022;2023-04-19T06:00:11;146451.59;;;8.74;100.00
5780;BME280;2916;49.798;10.022;2023-04-19T06:02:38;146454.06;;;8.75;100.00
5780;BME280;2916;49.798;10.022;2023-04-19T06:05:06;146364.88;;;8.39;100.00
5780;BME280;2916;49.798;10.022;2023-04-19T06:07:33;146473.91;;;8.83;100.00
5780;BME280;2916;49.798;10.022;2023-04-19T06:10:01;146480.09;;;8.86;100.00
5780;BME280;2916;49.798;10.022;2023-04-19T06:12:28;146409.50;;;8.57;100.00
5780;BME280;2916;49.798;10.022;2023-04-19T06:14:55;146413.19;;;8.58;100.00
5780;BME280;2916;49.798;10.022;2023-04-19T06:17:24;146145.59;;;7.48;99.32
5780;BME280;2916;49.798;10.022;2023-04-19T06:19:51;146516.06;;;9.01;99.21
5780;BME280;2916;49.798;10.022;2023-04-19T06:22:19;146516.06;;;9.01;98.40
5780;BME280;2916;49.798;10.022;2023-04-19T06:24:47;146532.16;;;9.07;98.45
5780;BME280;2916;49.798;10.022;2023-04-19T06:27:15;146509.84;;;8.98;97.77
5780;BME280;2916;49.798;10.022;2023-04-19T06:29:42;146544.56;;;9.13;96.80
5780;BME280;2916;49.798;10.022;2023-04-19T06:32:10;146544.56;;;9.13;96.25
5780;BME280;2916;49.798;10.022;2023-04-19T06:34:39;146545.81;;;9.13;95.91
5780;BME280;2916;49.798;10.022;2023-04-19T06:37:06;146524.75;;;9.04;95.14
5780;BME280;2916;49.798;10.022;2023-04-19T06:39:34;146537.13;;;9.09;95.60
5780;BME280;2916;49.798;10.022;2023-04-19T06:42:01;146565.63;;;9.21;94.68
5780;BME280;2916;49.798;10.022;2023-04-19T06:44:29;146561.94;;;9.20;93.74
5780;BME280;2916;49.798;10.022;2023-04-19T06:46:56;146518.53;;;9.02;92.99
5780;BME280;2916;49.798;10.022;2023-04-19T06:49:23;146535.91;;;9.09;92.64
5780;BME280;2916;49.798;10.022;2023-04-19T06:51:52;146547.03;;;9.14;91.68
5780;BME280;2916;49.798;10.022;2023-04-19T06:54:19;146575.56;;;9.25;91.29
5780;BME280;2916;49.798;10.022;2023-04-19T06:56:48;146560.66;;;9.19;90.34
5780;BME280;2916;49.798;10.022;2023-04-19T06:59:18;146580.50;;;9.27;90.40
5780;BME280;2916;49.798;10.022;2023-04-19T07:01:47;146554.50;;;9.17;89.86
5780;BME280;2916;49.798;10.022;2023-04-19T07:04:14;146579.25;;;9.27;89.04
5780;BME280;2916;49.798;10.022;2023-04-19T07:06:42;146565.63;;;9.21;88.92
5780;BME280;2916;49.798;10.022;2023-04-19T07:09:10;146555.72;;;9.17;87.83
5780;BME280;2916;49.798;10.022;2023-04-19T07:11:37;146585.47;;;9.29;87.04
5780;BME280;2916;49.798;10.022;2023-04-19T07:14:04;146590.47;;;9.31;87.20
5780;BME280;2916;49.798;10.022;2023-04-19T07:16:32;146595.41;;;9.33;87.12
5780;BME280;2916;49.798;10.022;2023-04-19T07:18:59;146611.53;;;9.40;86.96
5780;BME280;2916;49.798;10.022;2023-04-19T07:21:26;146594.16;;;9.33;85.94
5780;BME280;2916;49.798;10.022;2023-04-19T07:23:57;146596.63;;;9.34;85.24
5780;BME280;2916;49.798;10.022;2023-04-19T07:26:26;146609.00;;;9.39;85.14
5780;BME280;2916;49.798;10.022;2023-04-19T07:28:53;146600.38;;;9.36;85.10
5780;BME280;2916;49.798;10.022;2023-04-19T07:31:20;146565.63;;;9.21;84.18
5780;BME280;2916;49.798;10.022;2023-04-19T07:33:49;146583.00;;;9.28;84.66
5780;BME280;2916;49.798;10.022;2023-04-19T07:36:17;146607.78;;;9.39;84.35
5780;BME280;2916;49.798;10.022;2023-04-19T07:38:44;146574.31;;;9.25;83.12
5780;BME280;2916;49.798;10.022;2023-04-19T07:41:11;146542.06;;;9.12;83.33
5780;BME280;2916;49.798;10.022;2023-04-19T07:43:40;146568.13;;;9.22;82.89
5780;BME280;2916;49.798;10.022;2023-04-19T07:46:10;146605.31;;;9.38;82.33
5780;BME280;2916;49.798;10.022;2023-04-19T07:48:37;146617.69;;;9.43;81.39
5780;BME280;2916;49.798;10.022;2023-04-19T07:51:09;146620.22;;;9.44;81.30
5780;BME280;2916;49.798;10.022;2023-04-19T07:53:38;146595.41;;;9.33;81.56
5780;BME280;2916;49.798;10.022;2023-04-19T07:56:07;146600.38;;;9.36;81.83
5780;BME280;2916;49.798;10.022;2023-04-19T07:58:34;146654.91;;;9.58;81.16
5780;BME280;2916;49.798;10.022;2023-04-19T08:01:03;146682.19;;;9.69;81.01
5780;BME280;2916;49.798;10.022;2023-04-19T08:03:32;146730.56;;;9.89;80.15
5780;BME280;2916;49.798;10.022;2023-04-19T08:06:00;146714.47;;;9.82;79.95
5780;BME280;2916;49.798;10.022;2023-04-19T08:08:28;146747.94;;;9.96;80.40
5780;BME280;2916;49.798;10.022;2023-04-19T08:10:55;146640.03;;;9.52;80.28
5780;BME280;2916;49.798;10.022;2023-04-19T08:13:22;146828.59;;;10.29;79.88
5780;BME280;2916;49.798;10.022;2023-04-19T08:15:50;146827.34;;;10.29;78.86
5780;BME280;2916;49.798;10.022;2023-04-19T08:18:18;146822.41;;;10.27;78.62
5780;BME280;2916;49.798;10.022;2023-04-19T08:20:46;146879.50;;;10.50;77.91
5780;BME280;2916;49.798;10.022;2023-04-19T08:23:13;146934.09;;;10.73;77.45
5780;BME280;2916;49.798;10.022;2023-04-19T08:25:40;147054.50;;;11.22;77.80
5780;BME280;2916;49.798;10.022;2023-04-19T08:28:08;147071.88;;;11.29;75.13
5780;BME280;2916;49.798;10.022;2023-04-19T08:30:36;147080.56;;;11.33;75.97
5780;BME280;2916;49.798;10.022;2023-04-19T08:33:03;147013.53;;;11.05;75.31
5780;BME280;2916;49.798;10.022;2023-04-19T08:35:33;147022.22;;;11.09;75.03
5780;BME280;2916;49.798;10.022;2023-04-19T08:38:01;147085.50;;;11.35;74.38
5780;BME280;2916;49.798;10.022;2023-04-19T08:40:30;147143.88;;;11.59;74.93
5780;BME280;2916;49.798;10.022;2023-04-19T08:42:57;147056.97;;;11.23;74.74
5780;BME280;2916;49.798;10.022;2023-04-19T08:45:27;146677.25;;;9.67;73.57
5780;BME280;2916;49.798;10.022;2023-04-19T08:47:56;147078.09;;;11.32;75.31
5780;BME280;2916;49.798;10.022;2023-04-19T08:50:24;147038.34;;;11.16;73.69
5780;BME280;2916;49.798;10.022;2023-04-19T08:52:53;147092.97;;;11.38;73.35
5780;BME280;2916;49.798;10.022;2023-04-19T08:55:22;147109.13;;;11.45;73.06
5780;BME280;2916;49.798;10.022;2023-04-19T08:57:49;147068.16;;;11.28;71.96
5780;BME280;2916;49.798;10.022;2023-04-19T09:00:18;147119.06;;;11.49;71.25
5780;BME280;2916;49.798;10.022;2023-04-19T09:02:48;147171.19;;;11.70;72.73
5780;BME280;2916;49.798;10.022;2023-04-19T09:05:17;147224.69;;;11.92;73.82
5780;BME280;2916;49.798;10.022;2023-04-19T09:07:46;147163.78;;;11.67;71.15
5780;BME280;2916;49.798;10.022;2023-04-19T09:10:17;147338.97;;;12.39;71.43
5780;BME280;2916;49.798;10.022;2023-04-19T09:13:00;147330.25;;;12.36;69.42
5780;BME280;2916;49.798;10.022;2023-04-19T09:15:36;147238.31;;;11.98;67.98
5780;BME280;2916;49.798;10.022;2023-04-19T09:18:05;147268.13;;;12.10;69.25
5780;BME280;2916;49.798;10.022;2023-04-19T09:20:38;147321.56;;;12.32;68.67
5780;BME280;2916;49.798;10.022;2023-04-19T09:23:07;147289.28;;;12.19;68.25
5780;BME280;2916;49.798;10.022;2023-04-19T09:25:36;147052.00;;;11.21;68.71
5780;BME280;2916;49.798;10.022;2023-04-19T09:28:09;147137.69;;;11.57;68.39
5780;BME280;2916;49.798;10.022;2023-04-19T09:30:38;147109.13;;;11.45;68.63
5780;BME280;2916;49.798;10.022;2023-04-19T09:33:06;147161.25;;;11.66;68.89
5780;BME280;2916;49.798;10.022;2023-04-19T09:35:41;147156.31;;;11.64;68.63
5780;BME280;2916;49.798;10.022;2023-04-19T09:38:09;147258.19;;;12.06;68.08
5780;BME280;2916;49.798;10.022;2023-04-19T09:40:40;147347.66;;;12.43;67.92
5780;BME280;2916;49.798;10.022;2023-04-19T09:43:07;147250.78;;;12.03;66.87
5780;BME280;2916;49.798;10.022;2023-04-19T09:45:42;147324.03;;;12.33;65.83
5780;BME280;2916;49.798;10.022;2023-04-19T09:48:10;147407.31;;;12.67;65.92
5780;BME280;2916;49.798;10.022;2023-04-19T09:50:52;147265.66;;;12.09;65.50
5780;BME280;2916;49.798;10.022;2023-04-19T09:53:22;147321.56;;;12.32;66.65
5780;BME280;2916;49.798;10.022;2023-04-19T09:55:51;147278.06;;;12.14;65.49
5780;BME280;2916;49.798;10.022;2023-04-19T09:58:20;147186.13;;;11.76;66.05
5780;BME280;2916;49.798;10.022;2023-04-19T10:00:48;147289.28;;;12.19;65.56
5780;BME280;2916;49.798;10.022;2023-04-19T10:03:18;147250.78;;;12.03;65.62
5780;BME280;2916;49.798;10.022;2023-04-19T10:05:46;147293.00;;;12.20;64.26
5780;BME280;2916;49.798;10.022;2023-04-19T10:08:16;147325.28;;;12.34;63.59
5780;BME280;2916;49.798;10.022;2023-04-19T10:10:46;147437.13;;;12.80;64.29
5780;BME280;2916;49.798;10.022;2023-04-19T10:13:22;147434.66;;;12.78;64.46
5780;BME280;2916;49.798;10.022;2023-04-19T10:15:50;147457.00;;;12.88;64.31
5780;BME280;2916;49.798;10.022;2023-04-19T10:18:18;147648.53;;;13.66;64.45
5780;BME280;2916;49.798;10.022;2023-04-19T10:20:52;147636.09;;;13.61;60.90
5780;BME280;2916;49.798;10.022;2023-04-19T10:23:21;147586.38;;;13.41;61.23
5780;BME280;2916;49.798;10.022;2023-04-19T10:25:56;147626.16;;;13.57;60.81
5780;BME280;2916;49.798;10.022;2023-04-19T10:28:28;147529.13;;;13.17;60.83
5780;BME280;2916;49.798;10.022;2023-04-19T10:30:59;147382.44;;;12.57;63.22
5780;BME280;2916;49.798;10.022;2023-04-19T10:33:30;147377.50;;;12.55;62.55
5780;BME280;2916;49.798;10.022;2023-04-19T10:35:58;147471.94;;;12.94;61.62
5780;BME280;2916;49.798;10.022;2023-04-19T10:38:37;147448.31;;;12.84;59.35
5780;BME280;2916;49.798;10.022;2023-04-19T10:41:06;147628.63;;;13.58;58.64
5780;BME280;2916;49.798;10.022;2023-04-19T10:43:43;147525.38;;;13.16;59.14
5780;BME280;2916;49.798;10.022;2023-04-19T10:46:15;147598.78;;;13.46;60.82
5780;BME280;2916;49.798;10.022;2023-04-19T10:48:52;147526.59;;;13.16;59.25
5780;BME280;2916;49.798;10.022;2023-04-19T10:51:21;147556.53;;;13.29;59.00
5780;BME280;2916;49.798;10.022;2023-04-19T10:53:52;147408.53;;;12.68;59.56
5780;BME280;2916;49.798;10.022;2023-04-19T10:59:17;147651.00;;;13.67;57.05
5780;BME280;2916;49.798;10.022;2023-04-19T11:01:53;147601.25;;;13.47;57.77
5780;BME280;2916;49.798;10.022;2023-04-19T11:04:59;147842.56;;;14.46;55.48
5780;BME280;2916;49.798;10.022;2023-04-19T11:07:26;148019.34;;;15.18;56.43
5780;BME280;2916;49.798;10.022;2023-04-19T11:09:54;147782.84;;;14.21;53.85
5780;BME280;2916;49.798;10.022;2023-04-19T11:12:22;147919.78;;;14.78;55.52
5780;BME280;2916;49.798;10.022;2023-04-19T11:14:53;147782.84;;;14.21;53.37
5780;BME280;2916;49.798;10.022;2023-04-19T11:17:24;148016.88;;;15.17;52.95
5780;BME280;2916;49.798;10.022;2023-04-19T11:19:54;148054.22;;;15.33;51.73
5780;BME280;2916;49.798;10.022;2023-04-19T11:22:40;148113.97;;;15.57;50.56
5780;BME280;2916;49.798;10.022;2023-04-19T11:25:10;148223.59;;;16.02;52.13
5780;BME280;2916;49.798;10.022;2023-04-19T11:27:39;148233.56;;;16.06;48.28
5780;BME280;2916;49.798;10.022;2023-04-19T11:30:11;148289.63;;;16.29;49.44
5780;BME280;2916;49.798;10.022;2023-04-19T11:32:45;148166.31;;;15.79;49.75
5780;BME280;2916;49.798;10.022;2023-04-19T11:35:13;148108.97;;;15.55;51.91
5780;BME280;2916;49.798;10.022;2023-04-19T11:37:41;148146.38;;;15.70;49.97
5780;BME280;2916;49.798;10.022;2023-04-19T11:40:13;148256.00;;;16.15;48.50
5780;BME280;2916;49.798;10.022;2023-04-19T11:42:41;148171.31;;;15.81;47.77
5780;BME280;2916;49.798;10.022;2023-04-19T11:45:12;148162.59;;;15.77;47.98
5780;BME280;2916;49.798;10.022;2023-04-19T11:47:50;147835.13;;;14.43;47.32
5780;BME280;2916;49.798;10.022;2023-04-19T11:50:37;148191.22;;;15.89;46.96
5780;BME280;2916;49.798;10.022;2023-04-19T11:53:13;148116.47;;;15.58;45.00
5780;BME280;2916;49.798;10.022;2023-04-19T11:55:43;148115.22;;;15.58;44.57
5780;BME280;2916;49.798;10.022;2023-04-19T11:58:26;148080.34;;;15.43;44.97
5780;BME280;2916;49.798;10.022;2023-04-19T12:00:57;148165.06;;;15.78;43.99
5780;BME280;2916;49.798;10.022;2023-04-19T12:03:29;147958.38;;;14.93;43.52
5780;BME280;2916;49.798;10.022;2023-04-19T12:05:58;147867.50;;;14.56;43.29
5780;BME280;2916;49.798;10.022;2023-04-19T12:08:33;147897.38;;;14.68;44.54
5780;BME280;2916;49.798;10.022;2023-04-19T12:11:02;148143.91;;;15.69;44.38
5780;BME280;2916;49.798;10.022;2023-04-19T12:13:31;148026.84;;;15.21;44.11
5780;BME280;2916;49.798;10.022;2023-04-19T12:16:00;148041.75;;;15.28;44.62
5780;BME280;2916;49.798;10.022;2023-04-19T12:18:27;148036.78;;;15.26;44.11
5780;BME280;2916;49.798;10.022;2023-04-19T12:21:07;148126.41;;;15.62;42.56
5780;BME280;2916;49.798;10.022;2023-04-19T12:23:35;147670.94;;;13.75;41.89
5780;BME280;2916;49.798;10.022;2023-04-19T12:26:04;148106.50;;;15.54;43.95
5780;BME280;2916;49.798;10.022;2023-04-19T12:28:32;148111.50;;;15.56;43.07
5780;BME280;2916;49.798;10.022;2023-04-19T12:31:00;148057.94;;;15.34;43.75
5780;BME280;2916;49.798;10.022;2023-04-19T12:33:28;148006.91;;;15.13;42.80
5780;BME280;2916;49.798;10.022;2023-04-19T12:35:55;148133.94;;;15.65;43.48
5780;BME280;2916;49.798;10.022;2023-04-19T12:38:22;148044.22;;;15.29;43.71
5780;BME280;2916;49.798;10.022;2023-04-19T12:40:49;148062.91;;;15.36;43.06
5780;BME280;2916;49.798;10.022;2023-04-19T12:43:16;148028.06;;;15.22;43.00
5780;BME280;2916;49.798;10.022;2023-04-19T12:45:43;148024.31;;;15.20;42.58
5780;BME280;2916;49.798;10.022;2023-04-19T12:48:12;148023.06;;;15.20;43.94
5780;BME280;2916;49.798;10.022;2023-04-19T12:50:39;148014.34;;;15.16;43.49
5780;BME280;2916;49.798;10.022;2023-04-19T12:53:06;148171.31;;;15.81;41.82
5780;BME280;2916;49.798;10.022;2023-04-19T12:55:34;147977.00;;;15.01;37.75
5780;BME280;2916;49.798;10.022;2023-04-19T12:58:01;148116.47;;;15.58;38.32
5780;BME280;2916;49.798;10.022;2023-04-19T13:00:28;148084.09;;;15.45;38.27
5780;BME280;2916;49.798;10.022;2023-04-19T13:02:55;148055.47;;;15.33;36.70
5780;BME280;2916;49.798;10.022;2023-04-19T13:05:24;148011.88;;;15.15;36.83
5780;BME280;2916;49.798;10.022;2023-04-19T13:07:51;148132.72;;;15.65;37.72
5780;BME280;2916;49.798;10.022;2023-04-19T13:10:18;147807.75;;;14.32;37.11
5780;BME280;2916;49.798;10.022;2023-04-19T13:12:46;148026.84;;;15.21;37.77
5780;BME280;2916;49.798;10.022;2023-04-19T13:15:13;147933.47;;;14.83;36.62